sensor_id;sensor_type;location;lat;lon;timestamp;noise_LAeq;noise_LA_min;noise_LA_max;noise_LA01;noise_LA95
43385;Laerm;28988;48.042;7.584;2023-02-01T00:00:22;90.14;-21.54;98.60;;
43385;Laerm;28988;48.042;7.584;2023-02-01T00:02:47;90.14;-36.41;98.60;;
43385;Laerm;28988;48.042;7.584;2023-02-01T00:05:12;90.13;-37.56;98.60;;
43385;Laerm;28988;48.042;7.584;2023-02-01T00:07:38;90.13;-17.33;98.60;;
43385;Laerm;28988;48.042;7.584;2023-02-01T00:10:04;90.14;-37.56;98.60;;
43385;Laerm;28988;48.042;7.584;2023-02-01T00:12:30;90.13;-21.54;98.60;;
43385;Laerm;28988;48.042;7.584;2023-02-01T00:14:55;90.14;-37.56;98.60;;
43385;Laerm;28988;48.042;7.584;2023-02-01T00:17:20;90.13;-16.02;98.60;;
43385;Laerm;28988;48.042;7.584;2023-02-01T00:19:45;90.14;-15.25;98.60;;
43385;Laerm;28988;48.042;7.584;2023-02-01T00:22:10;90.13;-37.56;98.60;;
43385;Laerm;28988;48.042;7.584;2023-02-01T00:24:36;90.14;-37.56;98.60;;
43385;Laerm;28988;48.042;7.584;2023-02-01T00:27:01;90.14;-37.56;98.60;;
43385;Laerm;28988;48.042;7.584;2023-02-01T00:29:26;90.13;-36.41;98.60;;
43385;Laerm;28988;48.042;7.584;2023-02-01T00:31:51;90.14;-21.54;98.60;;
43385;Laerm;28988;48.042;7.584;2023-02-01T00:34:17;90.13;-42.24;98.60;;
43385;Laerm;28988;48.042;7.584;2023-02-01T00:36:43;90.13;-37.56;98.60;;
43385;Laerm;28988;48.042;7.584;2023-02-01T00:39:09;90.14;-21.54;98.60;;
43385;Laerm;28988;48.042;7.584;2023-02-01T00:41:34;90.13;-42.24;98.60;;
43385;Laerm;28988;48.042;7.584;2023-02-01T00:43:59;90.14;-37.56;98.60;;
43385;Laerm;28988;48.042;7.584;2023-02-01T00:46:25;90.14;-42.24;98.60;;
43385;Laerm;28988;48.042;7.584;2023-02-01T00:48:50;90.13;-17.33;98.60;;
43385;Laerm;28988;48.042;7.584;2023-02-01T00:51:17;90.14;-36.41;98.60;;
43385;Laerm;28988;48.042;7.584;2023-02-01T00:53:43;90.13;-37.56;98.60;;
43385;Laerm;28988;48.042;7.584;2023-02-01T00:56:08;90.13;-42.24;98.60;;
43385;Laerm;28988;48.042;7.584;2023-02-01T00:58:33;90.13;-37.56;98.60;;
43385;Laerm;28988;48.042;7.584;2023-02-01T01:01:06;90.14;-37.56;98.60;;
43385;Laerm;28988;48.042;7.584;2023-02-01T01:03:31;90.14;-37.56;98.60;;
43385;Laerm;28988;48.042;7.584;2023-02-01T01:06:01;90.13;-21.54;98.60;;
43385;Laerm;28988;48.042;7.584;2023-02-01T01:08:27;90.13;-42.24;98.60;;
43385;Laerm;28988;48.042;7.584;2023-02-01T01:10:52;90.14;-37.56;98.60;;
43385;Laerm;28988;48.042;7.584;2023-02-01T01:13:17;90.13;-17.33;98.60;;
43385;Laerm;28988;48.042;7.584;2023-02-01T01:15:42;90.14;-21.54;98.60;;
43385;Laerm;28988;48.042;7.584;2023-02-01T01:18:07;90.13;-37.56;98.60;;
43385;Laerm;28988;48.042;7.584;2023-02-01T01:20:36;90.14;-42.24;98.60;;
43385;Laerm;28988;48.042;7.584;2023-02-01T01:23:02;90.14;-42.24;98.60;;
43385;Laerm;28988;48.042;7.584;2023-02-01T01:25:27;90.14;-17.33;98.60;;
43385;Laerm;28988;48.042;7.584;2023-02-01T01:27:52;90.13;-42.24;98.60;;
43385;Laerm;28988;48.042;7.584;2023-02-01T01:30:17;90.13;-17.33;98.60;;
43385;Laerm;28988;48.042;7.584;2023-02-01T01:32:43;90.14;-16.02;98.60;;
43385;Laerm;28988;48.042;7.584;2023-02-01T01:35:08;90.13;-21.54;98.60;;
43385;Laerm;28988;48.042;7.584;2023-02-01T01:37:33;90.14;-42.24;98.60;;
43385;Laerm;28988;48.042;7.584;2023-02-01T01:40:00;90.13;-36.41;98.60;;
43385;Laerm;28988;48.042;7.584;2023-02-01T01:42:25;90.14;-37.56;98.60;;
43385;Laerm;28988;48.042;7.584;2023-02-01T01:44:57;90.14;-16.02;98.60;;
43385;Laerm;28988;48.042;7.584;2023-02-01T01:47:23;90.14;-42.24;98.60;;
43385;Laerm;28988;48.042;7.584;2023-02-01T01:49:49;90.13;-42.24;98.60;;
43385;Laerm;28988;48.042;7.584;2023-02-01T01:52:15;90.13;-37.56;98.60;;
43385;Laerm;28988;48.042;7.584;2023-02-01T01:54:41;90.14;-42.24;98.60;;
43385;Laerm;28988;48.042;7.584;2023-02-01T01:57:18;90.14;-14.85;98.60;;
43385;Laerm;28988;48.042;7.584;2023-02-01T01:59:46;90.13;-42.24;98.60;;
43385;Laerm;28988;48.042;7.584;2023-02-01T02:02:13;90.14;-21.54;98.60;;
43385;Laerm;28988;48.042;7.584;2023-02-01T02:04:39;90.14;-14.66;98.60;;
43385;Laerm;28988;48.042;7.584;2023-02-01T02:07:05;90.13;-37.56;98.60;;
43385;Laerm;28988;48.042;7.584;2023-02-01T02:09:33;90.14;-37.56;98.60;;
43385;Laerm;28988;48.042;7.584;2023-02-01T02:11:58;90.14;-42.24;98.60;;
43385;Laerm;28988;48.042;7.584;2023-02-01T02:14:23;90.13;-16.02;98.60;;
43385;Laerm;28988;48.042;7.584;2023-02-01T02:24:53;90.14;-36.41;98.60;;
43385;Laerm;28988;48.042;7.584;2023-02-01T02:27:27;90.13;-42.24;98.60;;
43385;Laerm;28988;48.042;7.584;2023-02-01T02:32:42;90.14;-42.24;98.60;;
43385;Laerm;28988;48.042;7.584;2023-02-01T02:35:26;90.13;-36.41;98.60;;
43385;Laerm;28988;48.042;7.584;2023-02-01T02:37:59;90.14;-14.85;98.60;;
43385;Laerm;28988;48.042;7.584;2023-02-01T02:40:36;90.13;-16.02;98.60;;
43385;Laerm;28988;48.042;7.584;2023-02-01T02:45:52;90.14;-37.56;98.60;;
43385;Laerm;28988;48.042;7.584;2023-02-01T02:48:47;90.13;-42.24;98.60;;
43385;Laerm;28988;48.042;7.584;2023-02-01T02:51:22;90.14;-37.56;98.60;;
43385;Laerm;28988;48.042;7.584;2023-02-01T02:54:18;90.14;-37.56;98.60;;
43385;Laerm;28988;48.042;7.584;2023-02-01T02:57:06;90.13;-42.24;98.60;;
43385;Laerm;28988;48.042;7.584;2023-02-01T02:59:51;90.14;-37.56;98.60;;
43385;Laerm;28988;48.042;7.584;2023-02-01T03:02:36;90.14;-37.56;98.60;;
43385;Laerm;28988;48.042;7.584;2023-02-01T03:05:20;90.14;-36.41;98.60;;
43385;Laerm;28988;48.042;7.584;2023-02-01T03:07:57;90.14;-16.02;98.60;;
43385;Laerm;28988;48.042;7.584;2023-02-01T03:11:09;90.14;-42.24;98.60;;
43385;Laerm;28988;48.042;7.584;2023-02-01T03:16:06;90.14;-21.54;98.60;;
43385;Laerm;28988;48.042;7.584;2023-02-01T03:18:42;90.14;-37.56;98.60;;
43385;Laerm;28988;48.042;7.584;2023-02-01T03:21:12;90.13;-21.54;98.60;;
43385;Laerm;28988;48.042;7.584;2023-02-01T03:23:40;90.13;-37.56;98.60;;
43385;Laerm;28988;48.042;7.584;2023-02-01T03:26:09;90.14;-21.54;98.60;;
43385;Laerm;28988;48.042;7.584;2023-02-01T03:28:36;90.14;-16.02;98.60;;
43385;Laerm;28988;48.042;7.584;2023-02-01T03:31:04;90.14;-37.56;98.60;;
43385;Laerm;28988;48.042;7.584;2023-02-01T03:33:29;90.14;-37.56;98.60;;
43385;Laerm;28988;48.042;7.584;2023-02-01T03:38:40;90.14;-37.56;98.60;;
43385;Laerm;28988;48.042;7.584;2023-02-01T03:41:20;90.14;-36.41;98.60;;
43385;Laerm;28988;48.042;7.584;2023-02-01T03:43:57;90.14;-37.56;98.60;;
43385;Laerm;28988;48.042;7.584;2023-02-01T03:46:38;90.13;-36.41;98.60;;
43385;Laerm;28988;48.042;7.584;2023-02-01T03:49:05;90.13;-21.54;98.60;;
43385;Laerm;28988;48.042;7.584;2023-02-01T03:51:31;90.13;-42.24;98.60;;
43385;Laerm;28988;48.042;7.584;2023-02-01T03:53:57;90.14;-42.24;98.60;;
43385;Laerm;28988;48.042;7.584;2023-02-01T03:56:23;90.14;-37.56;98.60;;
43385;Laerm;28988;48.042;7.584;2023-02-01T03:58:49;90.14;-36.41;98.60;;
43385;Laerm;28988;48.042;7.584;2023-02-01T04:01:23;90.13;-37.56;98.60;;
43385;Laerm;28988;48.042;7.584;2023-02-01T04:03:48;90.13;-16.02;98.60;;
43385;Laerm;28988;48.042;7.584;2023-02-01T04:06:16;90.14;-42.24;98.60;;
43385;Laerm;28988;48.042;7.584;2023-02-01T04:08:41;90.13;-16.02;98.60;;
43385;Laerm;28988;48.042;7.584;2023-02-01T04:11:06;90.14;-42.24;98.60;;
43385;Laerm;28988;48.042;7.584;2023-02-01T04:13:31;90.14;-42.24;98.60;;
43385;Laerm;28988;48.042;7.584;2023-02-01T04:15:56;90.14;-21.54;98.60;;
43385;Laerm;28988;48.042;7.584;2023-02-01T04:18:21;90.13;-37.56;98.60;;
43385;Laerm;28988;48.042;7.584;2023-02-01T04:20:47;90.14;-42.24;98.60;;
43385;Laerm;28988;48.042;7.584;2023-02-01T04:23:12;90.13;-37.56;98.60;;
43385;Laerm;28988;48.042;7.584;2023-02-01T04:25:38;90.14;-42.24;98.60;;
43385;Laerm;28988;48.042;7.584;2023-02-01T04:28:03;90.14;-21.54;98.60;;
43385;Laerm;28988;48.042;7.584;2023-02-01T04:30:29;90.13;-16.02;98.60;;
43385;Laerm;28988;48.042;7.584;2023-02-01T04:32:54;90.14;-36.41;98.60;;
43385;Laerm;28988;48.042;7.584;2023-02-01T04:35:20;90.14;-14.85;98.60;;
43385;Laerm;28988;48.042;7.584;2023-02-01T04:37:45;90.13;-36.41;98.60;;
43385;Laerm;28988;48.042;7.584;2023-02-01T04:40:10;90.14;-42.24;98.60;;
43385;Laerm;28988;48.042;7.584;2023-02-01T04:42:36;90.14;-21.54;98.60;;
43385;Laerm;28988;48.042;7.584;2023-02-01T04:45:01;90.14;-37.56;98.60;;
43385;Laerm;28988;48.042;7.584;2023-02-01T04:47:26;90.13;-16.02;98.60;;
43385;Laerm;28988;48.042;7.584;2023-02-01T04:49:52;90.14;-17.33;98.60;;
43385;Laerm;28988;48.042;7.584;2023-02-01T04:52:17;90.13;-42.24;98.60;;
43385;Laerm;28988;48.042;7.584;2023-02-01T04:54:42;90.14;-42.24;98.60;;
43385;Laerm;28988;48.042;7.584;2023-02-01T04:57:07;90.13;-36.41;98.60;;
43385;Laerm;28988;48.042;7.584;2023-02-01T04:59:32;90.14;-42.24;98.60;;
43385;Laerm;28988;48.042;7.584;2023-02-01T05:01:58;90.13;-42.24;98.60;;
43385;Laerm;28988;48.042;7.584;2023-02-01T05:04:23;90.14;-37.56;98.60;;
43385;Laerm;28988;48.042;7.584;2023-02-01T05:06:48;90.14;-37.56;98.60;;
43385;Laerm;28988;48.042;7.584;2023-02-01T05:09:13;90.13;-21.54;98.60;;
43385;Laerm;28988;48.042;7.584;2023-02-01T05:11:38;90.14;-42.24;98.60;;
43385;Laerm;28988;48.042;7.584;2023-02-01T05:14:22;90.14;-37.56;98.60;;
43385;Laerm;28988;48.042;7.584;2023-02-01T05:16:47;90.13;-42.24;98.60;;
43385;Laerm;28988;48.042;7.584;2023-02-01T05:19:12;90.14;-21.54;98.60;;
43385;Laerm;28988;48.042;7.584;2023-02-01T05:21:37;90.13;-16.02;98.60;;
43385;Laerm;28988;48.042;7.584;2023-02-01T05:24:03;90.14;-21.54;98.60;;
43385;Laerm;28988;48.042;7.584;2023-02-01T05:26:34;90.14;-42.24;98.60;;
43385;Laerm;28988;48.042;7.584;2023-02-01T05:28:59;90.14;-36.41;98.60;;
43385;Laerm;28988;48.042;7.584;2023-02-01T05:31:24;90.14;-16.02;98.60;;
43385;Laerm;28988;48.042;7.584;2023-02-01T05:33:50;90.13;-21.54;98.60;;
43385;Laerm;28988;48.042;7.584;2023-02-01T05:36:15;90.14;-37.56;98.60;;
43385;Laerm;28988;48.042;7.584;2023-02-01T05:38:40;90.13;-42.24;98.60;;
43385;Laerm;28988;48.042;7.584;2023-02-01T05:41:05;90.14;-21.54;98.60;;
43385;Laerm;28988;48.042;7.584;2023-02-01T05:43:31;90.14;-37.56;98.60;;
43385;Laerm;28988;48.042;7.584;2023-02-01T05:45:56;90.13;-14.66;98.60;;
43385;Laerm;28988;48.042;7.584;2023-02-01T05:48:21;90.14;-37.56;98.60;;
43385;Laerm;28988;48.042;7.584;2023-02-01T05:50:46;90.13;-16.02;98.60;;
43385;Laerm;28988;48.042;7.584;2023-02-01T05:53:12;90.14;-22.78;98.60;;
43385;Laerm;28988;48.042;7.584;2023-02-01T05:55:37;90.14;-21.54;98.60;;
43385;Laerm;28988;48.042;7.584;2023-02-01T05:58:03;90.13;-21.54;98.60;;
43385;Laerm;28988;48.042;7.584;2023-02-01T06:00:28;90.14;-42.24;98.60;;
43385;Laerm;28988;48.042;7.584;2023-02-01T06:02:54;90.14;-21.54;98.60;;
43385;Laerm;28988;48.042;7.584;2023-02-01T06:05:19;90.13;-36.41;98.60;;
43385;Laerm;28988;48.042;7.584;2023-02-01T06:07:44;90.14;-36.41;98.60;;
43385;Laerm;28988;48.042;7.584;2023-02-01T06:10:09;90.14;-21.54;98.60;;
43385;Laerm;28988;48.042;7.584;2023-02-01T06:12:35;90.13;-42.24;98.60;;
43385;Laerm;28988;48.042;7.584;2023-02-01T06:15:00;90.14;-37.56;98.60;;
43385;Laerm;28988;48.042;7.584;2023-02-01T06:17:25;90.14;-42.24;98.60;;
43385;Laerm;28988;48.042;7.584;2023-02-01T06:19:50;90.14;-42.24;98.60;;
43385;Laerm;28988;48.042;7.584;2023-02-01T06:22:16;90.13;-16.02;98.60;;
43385;Laerm;28988;48.042;7.584;2023-02-01T06:24:41;90.14;-37.56;98.60;;
43385;Laerm;28988;48.042;7.584;2023-02-01T06:27:06;90.14;-37.56;98.60;;
43385;Laerm;28988;48.042;7.584;2023-02-01T06:29:32;90.14;-37.56;98.60;;
43385;Laerm;28988;48.042;7.584;2023-02-01T06:31:57;90.13;-16.02;98.60;;
43385;Laerm;28988;48.042;7.584;2023-02-01T06:34:22;90.14;-17.33;98.92;;
43385;Laerm;28988;48.042;7.584;2023-02-01T06:36:48;90.14;-42.24;98.60;;
43385;Laerm;28988;48.042;7.584;2023-02-01T06:39:13;90.13;-42.24;98.60;;
43385;Laerm;28988;48.042;7.584;2023-02-01T06:41:41;90.14;-37.56;98.60;;
43385;Laerm;28988;48.042;7.584;2023-02-01T06:44:07;90.13;-37.56;98.60;;
43385;Laerm;28988;48.042;7.584;2023-02-01T06:46:33;90.14;-16.02;98.60;;
43385;Laerm;28988;48.042;7.584;2023-02-01T06:48:58;90.13;-42.24;98.60;;
43385;Laerm;28988;48.042;7.584;2023-02-01T06:51:24;90.14;-16.02;98.60;;
43385;Laerm;28988;48.042;7.584;2023-02-01T06:53:50;90.14;-37.56;98.60;;
43385;Laerm;28988;48.042;7.584;2023-02-01T06:56:15;90.14;-16.02;98.60;;
43385;Laerm;28988;48.042;7.584;2023-02-01T06:58:40;90.14;-21.54;98.60;;
43385;Laerm;28988;48.042;7.584;2023-02-01T07:01:06;90.13;-17.33;98.60;;
43385;Laerm;28988;48.042;7.584;2023-02-01T07:03:32;90.14;-42.24;98.60;;
43385;Laerm;28988;48.042;7.584;2023-02-01T07:05:57;90.14;-42.24;98.60;;
43385;Laerm;28988;48.042;7.584;2023-02-01T07:08:23;90.13;-42.24;98.60;;
43385;Laerm;28988;48.042;7.584;2023-02-01T07:10:49;90.14;-37.56;98.60;;
43385;Laerm;28988;48.042;7.584;2023-02-01T07:13:14;90.13;-21.54;98.60;;
43385;Laerm;28988;48.042;7.584;2023-02-01T07:15:39;90.14;-42.24;98.60;;
43385;Laerm;28988;48.042;7.584;2023-02-01T07:18:04;90.14;-17.33;98.60;;
43385;Laerm;28988;48.042;7.584;2023-02-01T07:20:29;90.13;-21.54;98.60;;
43385;Laerm;28988;48.042;7.584;2023-02-01T07:22:55;90.14;-37.56;98.60;;
43385;Laerm;28988;48.042;7.584;2023-02-01T07:25:21;90.14;-16.02;98.60;;
43385;Laerm;28988;48.042;7.584;2023-02-01T07:27:46;90.14;-37.56;98.60;;
43385;Laerm;28988;48.042;7.584;2023-02-01T07:30:12;90.14;-37.56;98.60;;
43385;Laerm;28988;48.042;7.584;2023-02-01T07:32:37;90.13;-37.56;98.60;;
43385;Laerm;28988;48.042;7.584;2023-02-01T07:35:02;90.14;-37.56;98.60;;
43385;Laerm;28988;48.042;7.584;2023-02-01T07:37:27;90.14;-16.02;98.60;;
43385;Laerm;28988;48.042;7.584;2023-02-01T07:39:52;90.13;-36.41;98.60;;
43385;Laerm;28988;48.042;7.584;2023-02-01T07:42:18;90.14;-16.02;98.60;;
43385;Laerm;28988;48.042;7.584;2023-02-01T07:44:43;90.13;-16.02;98.60;;
43385;Laerm;28988;48.042;7.584;2023-02-01T07:47:08;90.14;-16.02;98.60;;
43385;Laerm;28988;48.042;7.584;2023-02-01T07:49:33;90.14;-14.85;98.60;;
43385;Laerm;28988;48.042;7.584;2023-02-01T07:51:59;90.14;-36.41;98.60;;
43385;Laerm;28988;48.042;7.584;2023-02-01T07:54:24;90.13;-36.41;98.60;;
43385;Laerm;28988;48.042;7.584;2023-02-01T07:56:49;90.13;-17.33;98.60;;
43385;Laerm;28988;48.042;7.584;2023-02-01T07:59:14;90.13;-42.24;98.60;;
43385;Laerm;28988;48.042;7.584;2023-02-01T08:01:40;90.13;-37.56;98.60;;
43385;Laerm;28988;48.042;7.584;2023-02-01T08:04:07;90.13;-36.41;98.60;;
43385;Laerm;28988;48.042;7.584;2023-02-01T08:06:34;90.14;-37.56;98.60;;
43385;Laerm;28988;48.042;7.584;2023-02-01T08:08:59;90.13;-42.24;98.60;;
43385;Laerm;28988;48.042;7.584;2023-02-01T08:11:25;90.14;-37.56;98.60;;
43385;Laerm;28988;48.042;7.584;2023-02-01T08:13:50;90.13;-36.41;98.60;;
43385;Laerm;28988;48.042;7.584;2023-02-01T08:16:16;90.14;-37.56;98.60;;
43385;Laerm;28988;48.042;7.584;2023-02-01T08:18:42;90.13;-37.56;98.60;;
43385;Laerm;28988;48.042;7.584;2023-02-01T08:23:33;90.13;-42.24;98.60;;
43385;Laerm;28988;48.042;7.584;2023-02-01T08:26:12;90.14;-16.02;98.60;;
43385;Laerm;28988;48.042;7.584;2023-02-01T08:28:39;90.13;-37.56;98.60;;
43385;Laerm;28988;48.042;7.584;2023-02-01T08:31:09;90.13;-16.02;98.60;;
43385;Laerm;28988;48.042;7.584;2023-02-01T08:33:35;90.14;-14.66;98.60;;
43385;Laerm;28988;48.042;7.584;2023-02-01T08:36:02;90.13;-37.56;98.60;;
43385;Laerm;28988;48.042;7.584;2023-02-01T08:38:28;90.14;-37.56;98.60;;
43385;Laerm;28988;48.042;7.584;2023-02-01T08:40:53;90.13;-21.54;98.60;;
43385;Laerm;28988;48.042;7.584;2023-02-01T08:43:18;90.13;-15.25;98.60;;
43385;Laerm;28988;48.042;7.584;2023-02-01T08:45:44;90.13;-16.02;98.60;;
43385;Laerm;28988;48.042;7.584;2023-02-01T08:48:09;90.14;-16.02;98.60;;
43385;Laerm;28988;48.042;7.584;2023-02-01T08:50:34;90.14;-37.56;98.60;;
43385;Laerm;28988;48.042;7.584;2023-02-01T08:52:59;90.13;-42.24;98.60;;
43385;Laerm;28988;48.042;7.584;2023-02-01T08:55:24;90.14;-16.02;98.60;;
43385;Laerm;28988;48.042;7.584;2023-02-01T08:57:50;90.13;-37.56;98.60;;
43385;Laerm;28988;48.042;7.584;2023-02-01T09:00:15;90.14;-37.56;98.60;;
43385;Laerm;28988;48.042;7.584;2023-02-01T09:02:41;90.13;-17.33;98.60;;
43385;Laerm;28988;48.042;7.584;2023-02-01T09:05:07;90.14;-37.56;98.60;;
43385;Laerm;28988;48.042;7.584;2023-02-01T09:07:32;90.13;-21.54;98.60;;
43385;Laerm;28988;48.042;7.584;2023-02-01T09:09:58;90.14;-16.02;98.60;;
43385;Laerm;28988;48.042;7.584;2023-02-01T09:12:25;90.13;-36.41;98.60;;
43385;Laerm;28988;48.042;7.584;2023-02-01T09:14:51;90.13;-37.56;98.60;;
43385;Laerm;28988;48.042;7.584;2023-02-01T09:17:16;90.14;-37.56;98.60;;
43385;Laerm;28988;48.042;7.584;2023-02-01T09:19:41;90.14;-37.56;98.60;;
43385;Laerm;28988;48.042;7.584;2023-02-01T09:22:06;90.13;-42.24;98.60;;
43385;Laerm;28988;48.042;7.584;2023-02-01T09:24:31;90.13;-37.56;98.60;;
43385;Laerm;28988;48.042;7.584;2023-02-01T09:26:57;90.13;-17.33;98.60;;
43385;Laerm;28988;48.042;7.584;2023-02-01T09:29:22;90.13;-36.41;98.60;;
43385;Laerm;28988;48.042;7.584;2023-02-01T09:31:47;90.13;-16.02;98.60;;
43385;Laerm;28988;48.042;7.584;2023-02-01T09:34:13;90.13;-21.54;98.60;;
43385;Laerm;28988;48.042;7.584;2023-02-01T09:36:38;90.13;-37.56;98.60;;
43385;Laerm;28988;48.042;7.584;2023-02-01T09:39:03;90.13;-16.02;98.60;;
43385;Laerm;28988;48.042;7.584;2023-02-01T09:44:03;90.13;-17.33;98.60;;
43385;Laerm;28988;48.042;7.584;2023-02-01T09:46:33;90.13;-21.54;98.60;;
43385;Laerm;28988;48.042;7.584;2023-02-01T09:49:00;90.14;-37.56;98.60;;
43385;Laerm;28988;48.042;7.584;2023-02-01T09:51:34;90.13;-37.56;98.60;;
43385;Laerm;28988;48.042;7.584;2023-02-01T09:54:06;90.14;-14.66;98.60;;
43385;Laerm;28988;48.042;7.584;2023-02-01T10:01:53;90.13;-42.24;98.60;;
43385;Laerm;28988;48.042;7.584;2023-02-01T10:04:20;90.13;-15.33;98.60;;
43385;Laerm;28988;48.042;7.584;2023-02-01T10:09:35;90.14;-37.56;98.60;;
43385;Laerm;28988;48.042;7.584;2023-02-01T10:20:00;90.14;-16.02;98.60;;
43385;Laerm;28988;48.042;7.584;2023-02-01T10:22:36;90.13;-17.33;98.60;;
43385;Laerm;28988;48.042;7.584;2023-02-01T10:27:30;90.13;-42.24;98.60;;
43385;Laerm;28988;48.042;7.584;2023-02-01T10:30:01;90.14;-14.85;98.60;;
43385;Laerm;28988;48.042;7.584;2023-02-01T10:32:30;90.13;-21.54;98.60;;
43385;Laerm;28988;48.042;7.584;2023-02-01T10:34:57;90.13;-17.33;98.60;;
43385;Laerm;28988;48.042;7.584;2023-02-01T10:37:24;90.13;-17.33;98.60;;
43385;Laerm;28988;48.042;7.584;2023-02-01T10:39:49;90.13;-42.24;98.60;;
43385;Laerm;28988;48.042;7.584;2023-02-01T10:42:24;90.13;-16.02;98.60;;
43385;Laerm;28988;48.042;7.584;2023-02-01T10:44:50;90.12;-14.66;98.60;;
43385;Laerm;28988;48.042;7.584;2023-02-01T10:47:16;90.13;-14.66;98.60;;
43385;Laerm;28988;48.042;7.584;2023-02-01T10:50:03;90.13;-21.54;98.60;;
43385;Laerm;28988;48.042;7.584;2023-02-01T10:52:41;90.13;-14.85;98.80;;
43385;Laerm;28988;48.042;7.584;2023-02-01T10:55:32;90.14;-17.33;98.75;;
43385;Laerm;28988;48.042;7.584;2023-02-01T10:57:58;90.13;-55.00;98.76;;
43385;Laerm;28988;48.042;7.584;2023-02-01T11:00:24;90.13;-14.85;98.76;;
43385;Laerm;28988;48.042;7.584;2023-02-01T11:02:49;90.14;-21.54;98.66;;
43385;Laerm;28988;48.042;7.584;2023-02-01T11:05:15;90.13;-14.66;98.60;;
43385;Laerm;28988;48.042;7.584;2023-02-01T11:07:46;90.13;-14.66;98.60;;
43385;Laerm;28988;48.042;7.584;2023-02-01T11:12:56;90.13;-14.66;98.60;;
43385;Laerm;28988;48.042;7.584;2023-02-01T11:15:23;90.12;-17.33;98.60;;
43385;Laerm;28988;48.042;7.584;2023-02-01T11:17:51;90.13;-21.54;98.60;;
43385;Laerm;28988;48.042;7.584;2023-02-01T11:20:19;90.13;-14.66;98.60;;
43385;Laerm;28988;48.042;7.584;2023-02-01T11:22:48;90.13;-41.69;98.66;;
43385;Laerm;28988;48.042;7.584;2023-02-01T11:25:14;90.13;-16.02;98.60;;
43385;Laerm;28988;48.042;7.584;2023-02-01T11:27:40;90.13;-14.85;98.66;;
43385;Laerm;28988;48.042;7.584;2023-02-01T11:30:06;90.13;-15.68;98.60;;
43385;Laerm;28988;48.042;7.584;2023-02-01T11:32:31;90.13;-17.33;98.66;;
43385;Laerm;28988;48.042;7.584;2023-02-01T11:35:01;90.13;-14.85;98.71;;
43385;Laerm;28988;48.042;7.584;2023-02-01T11:37:31;90.13;-20.19;98.65;;
43385;Laerm;28988;48.042;7.584;2023-02-01T11:39:59;90.13;-14.85;98.66;;
43385;Laerm;28988;48.042;7.584;2023-02-01T11:42:25;90.15;-22.78;98.86;;
43385;Laerm;28988;48.042;7.584;2023-02-01T11:44:50;90.40;-31.36;99.25;;
43385;Laerm;28988;48.042;7.584;2023-02-01T11:49:47;91.40;-29.68;100.10;;
43385;Laerm;28988;48.042;7.584;2023-02-01T12:00:06;90.24;-33.74;99.00;;
43385;Laerm;28988;48.042;7.584;2023-02-01T12:02:42;90.18;-24.25;99.00;;
43385;Laerm;28988;48.042;7.584;2023-02-01T12:05:14;90.16;-20.23;98.88;;
43385;Laerm;28988;48.042;7.584;2023-02-01T12:13:02;90.14;-18.00;98.70;;
43385;Laerm;28988;48.042;7.584;2023-02-01T12:25:42;90.13;-14.85;98.71;;
43385;Laerm;28988;48.042;7.584;2023-02-01T12:31:48;90.13;-15.45;98.60;;
43385;Laerm;28988;48.042;7.584;2023-02-01T12:36:23;90.14;-32.12;98.66;;
43385;Laerm;28988;48.042;7.584;2023-02-01T12:38:52;90.13;-18.00;98.70;;
43385;Laerm;28988;48.042;7.584;2023-02-01T12:41:22;90.13;-30.24;98.75;;
43385;Laerm;28988;48.042;7.584;2023-02-01T12:46:21;90.13;-42.91;98.66;;
43385;Laerm;28988;48.042;7.584;2023-02-01T12:51:33;90.13;-14.85;98.66;;
43385;Laerm;28988;48.042;7.584;2023-02-01T12:54:01;90.13;-21.54;98.60;;
43385;Laerm;28988;48.042;7.584;2023-02-01T12:58:56;90.13;-37.56;98.60;;
43385;Laerm;28988;48.042;7.584;2023-02-01T13:04:25;90.13;-12.84;98.76;;
43385;Laerm;28988;48.042;7.584;2023-02-01T13:06:52;90.14;-21.54;98.78;;
43385;Laerm;28988;48.042;7.584;2023-02-01T13:11:46;90.20;-20.23;99.07;;
43385;Laerm;28988;48.042;7.584;2023-02-01T13:17:03;90.16;-45.30;98.93;;
43385;Laerm;28988;48.042;7.584;2023-02-01T13:22:25;90.15;-21.14;99.04;;
43385;Laerm;28988;48.042;7.584;2023-02-01T13:24:53;90.13;-14.85;98.83;;
43385;Laerm;28988;48.042;7.584;2023-02-01T13:27:20;90.14;-14.85;98.75;;
43385;Laerm;28988;48.042;7.584;2023-02-01T13:29:48;90.14;-29.68;98.76;;
43385;Laerm;28988;48.042;7.584;2023-02-01T13:34:55;90.14;-14.66;98.75;;
43385;Laerm;28988;48.042;7.584;2023-02-01T13:40:09;90.13;-12.84;98.66;;
43385;Laerm;28988;48.042;7.584;2023-02-01T13:42:50;90.13;-20.67;98.76;;
43385;Laerm;28988;48.042;7.584;2023-02-01T13:45:20;90.13;-21.54;98.61;;
43385;Laerm;28988;48.042;7.584;2023-02-01T13:47:47;90.14;-20.63;98.71;;
43385;Laerm;28988;48.042;7.584;2023-02-01T13:52:50;90.13;-23.90;98.76;;
43385;Laerm;28988;48.042;7.584;2023-02-01T13:57:45;90.12;-21.26;98.68;;
43385;Laerm;28988;48.042;7.584;2023-02-01T14:13:12;90.13;-37.56;98.60;;
43385;Laerm;28988;48.042;7.584;2023-02-01T14:15:37;90.13;-25.57;98.60;;
43385;Laerm;28988;48.042;7.584;2023-02-01T14:18:05;90.13;-16.02;98.60;;
43385;Laerm;28988;48.042;7.584;2023-02-01T14:20:48;90.13;-16.02;98.60;;
43385;Laerm;28988;48.042;7.584;2023-02-01T14:23:15;90.13;-14.66;98.60;;
43385;Laerm;28988;48.042;7.584;2023-02-01T14:25:41;90.14;-37.56;98.66;;
43385;Laerm;28988;48.042;7.584;2023-02-01T14:28:10;90.12;-14.85;98.60;;
43385;Laerm;28988;48.042;7.584;2023-02-01T14:30:36;90.13;-42.91;98.60;;
43385;Laerm;28988;48.042;7.584;2023-02-01T14:33:11;90.13;-29.68;98.60;;
43385;Laerm;28988;48.042;7.584;2023-02-01T14:35:36;90.13;-37.56;98.60;;
43385;Laerm;28988;48.042;7.584;2023-02-01T14:38:01;90.13;-16.02;98.60;;
43385;Laerm;28988;48.042;7.584;2023-02-01T14:40:32;90.13;-17.33;98.66;;
43385;Laerm;28988;48.042;7.584;2023-02-01T14:42:59;90.13;-14.85;98.60;;
43385;Laerm;28988;48.042;7.584;2023-02-01T14:47:53;90.13;-14.66;98.60;;
43385;Laerm;28988;48.042;7.584;2023-02-01T15:00:43;90.13;-14.85;98.60;;
43385;Laerm;28988;48.042;7.584;2023-02-01T15:05:57;90.13;-15.25;98.60;;
43385;Laerm;28988;48.042;7.584;2023-02-01T15:08:44;90.13;-14.85;98.60;;
43385;Laerm;28988;48.042;7.584;2023-02-01T15:11:11;90.12;-17.33;98.60;;
43385;Laerm;28988;48.042;7.584;2023-02-01T15:13:39;90.13;-16.02;98.60;;
43385;Laerm;28988;48.042;7.584;2023-02-01T15:16:10;90.13;-17.33;98.60;;
43385;Laerm;28988;48.042;7.584;2023-02-01T15:18:35;90.13;-21.54;98.60;;
43385;Laerm;28988;48.042;7.584;2023-02-01T15:21:02;90.13;-14.85;98.66;;
43385;Laerm;28988;48.042;7.584;2023-02-01T15:23:27;90.13;-14.85;98.60;;
43385;Laerm;28988;48.042;7.584;2023-02-01T15:25:53;90.13;-21.21;98.60;;
43385;Laerm;28988;48.042;7.584;2023-02-01T15:28:18;90.13;-17.33;98.60;;
43385;Laerm;28988;48.042;7.584;2023-02-01T15:33:40;90.13;-22.78;98.60;;
43385;Laerm;28988;48.042;7.584;2023-02-01T15:36:20;90.13;-21.54;98.60;;
43385;Laerm;28988;48.042;7.584;2023-02-01T15:39:16;90.13;-16.02;98.60;;
43385;Laerm;28988;48.042;7.584;2023-02-01T15:41:45;90.13;-16.02;98.60;;
43385;Laerm;28988;48.042;7.584;2023-02-01T15:44:16;90.13;-17.33;98.66;;
43385;Laerm;28988;48.042;7.584;2023-02-01T15:46:44;90.13;-14.85;98.60;;
43385;Laerm;28988;48.042;7.584;2023-02-01T15:49:17;90.13;-14.66;98.60;;
43385;Laerm;28988;48.042;7.584;2023-02-01T15:51:44;90.13;-16.02;98.60;;